TAH weather

Tanna Airport
Tafea, Vanuatu

Public forecast

Using degrees Celsius for public forecast. Weather courtesy of forecast.io.

Current aviation weather report (METAR) for Tanna Airport

Retrieved 2019/11/22 00:00 UTC (2 hours ago):

NVVW 220000Z AUTO 11013KT //// // NCD 28/16 Q1012

Aviation forecast (TAF) for Tanna Airport

Retrieved 2019-11-22 00:27 UTC (1 hour ago):

TAF NVVW 212220Z 2200/2224 13010G20KT 9999 FEW025